Time;durP1;ratioP1;P1;durP2;ratioP2;P2;SDS_P1;SDS_P2;PMS_P1;PMS_P2;Temp;Humidity;BMP_temperature;BMP_pressure;BME280_temperature;BME280_humidity;BME280_pressure;Samples;Min_cycle;Max_cycle;Signal;HPM_P1;HPM_P2
2023/05/27 00:01:06;;;;;;;10.93;2.25;;;;;;;;;;5281657;28;20020;-71
2023/05/27 00:03:37;;;;;;;10.52;2.38;;;;;;;;;;5281284;28;20031;-70
2023/05/27 00:06:08;;;;;;;10.67;2.27;;;;;;;;;;5281757;28;20298;-71
2023/05/27 00:08:40;;;;;;;10.38;2.33;;;;;;;;;;5280539;28;20254;-70
2023/05/27 00:11:11;;;;;;;10.15;2.33;;;;;;;;;;5281889;28;20025;-70
2023/05/27 00:13:42;;;;;;;9.13;2.13;;;;;;;;;;5281143;28;20021;-71
2023/05/27 00:16:13;;;;;;;9.68;1.75;;;;;;;;;;5281340;28;20012;-71
2023/05/27 00:18:44;;;;;;;10.68;2.70;;;;;;;;;;5281617;28;20037;-70
2023/05/27 00:21:16;;;;;;;15.27;2.65;;;;;;;;;;5282014;28;20013;-70
2023/05/27 00:23:47;;;;;;;7.32;2.00;;;;;;;;;;5280501;28;20048;-71
2023/05/27 00:26:18;;;;;;;11.60;2.13;;;;;;;;;;5281683;28;20041;-70
2023/05/27 00:28:49;;;;;;;15.13;3.00;;;;;;;;;;5281265;28;20017;-70
2023/05/27 00:31:21;;;;;;;12.75;2.63;;;;;;;;;;5281125;28;20025;-70
2023/05/27 00:33:52;;;;;;;12.60;2.65;;;;;;;;;;5281001;28;20052;-69
2023/05/27 00:36:24;;;;;;;11.15;2.13;;;;;;;;;;5281606;28;20498;-69
2023/05/27 00:38:55;;;;;;;8.60;2.15;;;;;;;;;;5280020;28;20017;-70
2023/05/27 00:41:26;;;;;;;9.83;1.67;;;;;;;;;;5282768;28;20028;-70
2023/05/27 00:43:57;;;;;;;11.90;2.33;;;;;;;;;;5284287;28;20262;-69
2023/05/27 00:46:28;;;;;;;11.18;1.80;;;;;;;;;;5285591;28;20028;-69
2023/05/27 00:49:00;;;;;;;11.20;2.33;;;;;;;;;;5284747;28;20069;-69
2023/05/27 00:51:31;;;;;;;10.98;2.28;;;;;;;;;;5284570;28;20020;-69
2023/05/27 00:54:02;;;;;;;10.23;1.77;;;;;;;;;;5284738;28;20035;-69
2023/05/27 00:56:33;;;;;;;11.05;2.58;;;;;;;;;;5285081;28;20460;-70
2023/05/27 00:59:05;;;;;;;10.13;2.80;;;;;;;;;;5284146;28;20055;-70
2023/05/27 01:01:38;;;;;;;10.77;2.35;;;;;;;;;;5284933;28;20078;-70
2023/05/27 01:04:12;;;;;;;10.98;2.40;;;;;;;;;;5285099;28;20056;-69
2023/05/27 01:06:52;;;;;;;8.57;2.58;;;;;;;;;;5283828;28;20047;-69
2023/05/27 01:09:35;;;;;;;9.32;1.80;;;;;;;;;;5285324;28;20352;-69
2023/05/27 01:12:21;;;;;;;10.05;2.30;;;;;;;;;;5283865;28;20031;-70
2023/05/27 01:14:54;;;;;;;12.77;2.58;;;;;;;;;;5284492;28;20016;-70
2023/05/27 01:17:26;;;;;;;10.93;2.03;;;;;;;;;;5284876;28;20025;-70
2023/05/27 01:19:59;;;;;;;8.48;1.63;;;;;;;;;;5283508;28;20023;-70
2023/05/27 01:22:30;;;;;;;14.45;2.38;;;;;;;;;;5284398;28;20059;-70
2023/05/27 01:25:02;;;;;;;9.30;1.83;;;;;;;;;;5284506;28;20387;-69
2023/05/27 01:27:33;;;;;;;11.00;2.17;;;;;;;;;;5283674;28;20463;-70
2023/05/27 01:30:05;;;;;;;11.85;1.83;;;;;;;;;;5284362;28;20043;-70
2023/05/27 01:32:45;;;;;;;9.20;2.55;;;;;;;;;;5284431;28;20036;-69
2023/05/27 01:35:20;;;;;;;7.78;1.42;;;;;;;;;;5283987;28;20078;-70
2023/05/27 01:37:52;;;;;;;10.88;1.90;;;;;;;;;;5284029;28;20017;-70
2023/05/27 01:40:23;;;;;;;10.32;1.90;;;;;;;;;;5283793;28;20547;-70
2023/05/27 01:42:56;;;;;;;10.68;1.92;;;;;;;;;;5283660;28;20044;-69
2023/05/27 01:45:27;;;;;;;7.75;1.67;;;;;;;;;;5284181;28;20047;-70
2023/05/27 01:47:58;;;;;;;12.85;2.35;;;;;;;;;;5283011;28;20024;-70
2023/05/27 01:50:30;;;;;;;11.85;2.35;;;;;;;;;;5284126;28;20051;-70
2023/05/27 01:53:03;;;;;;;11.65;1.88;;;;;;;;;;5283843;28;20043;-70
2023/05/27 01:55:34;;;;;;;8.55;1.95;;;;;;;;;;5282870;28;20044;-70
2023/05/27 01:58:05;;;;;;;7.72;1.85;;;;;;;;;;5283717;28;20104;-70
2023/05/27 02:00:36;;;;;;;9.90;1.90;;;;;;;;;;5283987;28;20463;-70
2023/05/27 02:03:07;;;;;;;11.43;2.13;;;;;;;;;;5283176;28;20012;-70
2023/05/27 02:05:40;;;;;;;11.02;2.33;;;;;;;;;;5283539;28;20095;-73
2023/05/27 02:08:11;;;;;;;11.70;2.38;;;;;;;;;;5283433;28;20382;-70
2023/05/27 02:10:42;;;;;;;14.63;2.40;;;;;;;;;;5283153;28;20036;-71
2023/05/27 02:13:13;;;;;;;8.58;1.90;;;;;;;;;;5283922;28;20029;-71
2023/05/27 02:15:44;;;;;;;9.85;1.85;;;;;;;;;;5282410;28;20021;-71
2023/05/27 02:18:17;;;;;;;10.57;2.60;;;;;;;;;;5283745;28;20099;-71
2023/05/27 02:20:48;;;;;;;11.60;2.25;;;;;;;;;;5282988;28;20028;-71
2023/05/27 02:23:19;;;;;;;9.92;2.46;;;;;;;;;;5283073;28;20010;-71
2023/05/27 02:25:50;;;;;;;11.30;1.98;;;;;;;;;;5282950;28;20024;-71
2023/05/27 02:28:22;;;;;;;9.07;1.83;;;;;;;;;;5283598;28;20104;-71
2023/05/27 02:30:53;;;;;;;12.48;2.90;;;;;;;;;;5282031;28;20027;-70
2023/05/27 02:33:24;;;;;;;10.43;2.17;;;;;;;;;;5283297;28;20051;-71
2023/05/27 02:35:55;;;;;;;9.52;2.35;;;;;;;;;;5282888;28;20603;-70
2023/05/27 02:38:26;;;;;;;10.30;2.90;;;;;;;;;;5282474;28;20027;-70
2023/05/27 02:40:58;;;;;;;10.45;1.77;;;;;;;;;;5282618;28;20475;-71
2023/05/27 02:43:29;;;;;;;11.32;2.50;;;;;;;;;;5282046;28;20155;-71
2023/05/27 02:46:00;;;;;;;8.95;2.47;;;;;;;;;;5282628;28;20467;-71
2023/05/27 02:48:31;;;;;;;11.43;2.03;;;;;;;;;;5283002;28;20020;-71
2023/05/27 02:51:02;;;;;;;10.25;2.00;;;;;;;;;;5282131;28;20464;-71
2023/05/27 02:53:34;;;;;;;11.10;1.60;;;;;;;;;;5282817;28;20012;-70
2023/05/27 02:56:05;;;;;;;12.10;2.67;;;;;;;;;;5282297;28;20048;-71
2023/05/27 02:58:36;;;;;;;12.80;2.53;;;;;;;;;;5281999;28;20036;-71
2023/05/27 03:01:07;;;;;;;9.32;1.80;;;;;;;;;;5282744;28;20024;-71
2023/05/27 03:03:38;;;;;;;10.57;2.53;;;;;;;;;;5282047;28;20028;-71
2023/05/27 03:06:10;;;;;;;12.98;2.60;;;;;;;;;;5281712;28;20039;-71
2023/05/27 03:08:41;;;;;;;10.30;2.50;;;;;;;;;;5282071;28;20058;-71
2023/05/27 03:11:12;;;;;;;8.05;2.28;;;;;;;;;;5282814;28;20012;-71
2023/05/27 03:13:43;;;;;;;11.36;2.92;;;;;;;;;;5281371;28;20016;-70
2023/05/27 03:16:15;;;;;;;9.78;3.02;;;;;;;;;;5282644;28;20040;-70
2023/05/27 03:18:46;;;;;;;10.80;1.92;;;;;;;;;;5281260;28;20040;-70
2023/05/27 03:21:17;;;;;;;12.78;2.98;;;;;;;;;;5282379;28;20024;-70
2023/05/27 03:23:48;;;;;;;10.23;2.60;;;;;;;;;;5281824;28;20031;-71
2023/05/27 03:26:20;;;;;;;12.50;2.96;;;;;;;;;;5281385;28;20458;-71
2023/05/27 03:28:51;;;;;;;14.93;2.25;;;;;;;;;;5281667;28;20483;-70
2023/05/27 03:31:22;;;;;;;8.26;2.10;;;;;;;;;;5282138;28;20024;-70
2023/05/27 03:33:53;;;;;;;13.10;2.90;;;;;;;;;;5280634;28;20009;-71
2023/05/27 03:36:24;;;;;;;11.58;2.78;;;;;;;;;;5282266;28;20024;-70
2023/05/27 03:38:56;;;;;;;9.20;2.33;;;;;;;;;;5281783;28;20016;-71
2023/05/27 03:41:27;;;;;;;12.25;3.20;;;;;;;;;;5281521;28;20016;-71
2023/05/27 03:43:58;;;;;;;12.82;2.95;;;;;;;;;;5281512;28;20085;-70
2023/05/27 03:46:29;;;;;;;9.82;2.06;;;;;;;;;;5281624;28;20479;-71
2023/05/27 03:49:01;;;;;;;16.56;3.30;;;;;;;;;;5280985;28;20467;-70
2023/05/27 03:51:32;;;;;;;11.63;2.30;;;;;;;;;;5281785;28;20528;-71
2023/05/27 03:54:03;;;;;;;13.45;3.20;;;;;;;;;;5280698;28;20013;-70
2023/05/27 03:56:35;;;;;;;11.10;2.70;;;;;;;;;;5281683;28;20085;-71
2023/05/27 03:59:06;;;;;;;10.68;2.72;;;;;;;;;;5281730;28;20021;-71
2023/05/27 04:01:37;;;;;;;10.57;2.58;;;;;;;;;;5281025;28;20096;-71
2023/05/27 04:04:08;;;;;;;10.43;2.95;;;;;;;;;;5281604;28;20033;-70
2023/05/27 04:06:41;;;;;;;9.40;2.00;;;;;;;;;;5281353;28;20032;-71
2023/05/27 04:09:13;;;;;;;20.85;3.95;;;;;;;;;;5281022;28;20016;-71
2023/05/27 04:11:44;;;;;;;11.75;3.30;;;;;;;;;;5281362;28;20013;-70
2023/05/27 04:14:15;;;;;;;13.35;3.40;;;;;;;;;;5281861;28;20096;-70
2023/05/27 04:16:47;;;;;;;14.13;2.63;;;;;;;;;;5282130;28;20016;-70
2023/05/27 04:19:19;;;;;;;15.20;2.78;;;;;;;;;;5285896;28;20020;-70
2023/05/27 04:21:50;;;;;;;9.50;2.58;;;;;;;;;;5284424;28;20029;-71
2023/05/27 04:24:21;;;;;;;11.90;2.42;;;;;;;;;;5285984;28;20023;-70
2023/05/27 04:26:52;;;;;;;12.27;2.88;;;;;;;;;;5285215;28;20033;-71
2023/05/27 04:29:23;;;;;;;12.57;2.63;;;;;;;;;;5285025;28;20086;-70
2023/05/27 04:31:56;;;;;;;11.27;2.60;;;;;;;;;;5285051;28;20020;-71
2023/05/27 04:34:27;;;;;;;16.08;3.30;;;;;;;;;;5285810;28;20016;-71
2023/05/27 04:37:00;;;;;;;13.76;3.40;;;;;;;;;;5284366;28;20107;-69
2023/05/27 04:39:32;;;;;;;13.00;3.25;;;;;;;;;;5285387;28;20021;-69
2023/05/27 04:42:03;;;;;;;10.13;2.45;;;;;;;;;;5285059;28;20019;-68
2023/05/27 04:44:35;;;;;;;14.38;3.03;;;;;;;;;;5284127;28;20100;-69
2023/05/27 04:47:06;;;;;;;16.15;3.33;;;;;;;;;;5285203;28;20062;-69
2023/05/27 04:49:37;;;;;;;9.45;2.72;;;;;;;;;;5285180;28;20046;-69
2023/05/27 04:52:09;;;;;;;12.77;3.65;;;;;;;;;;5284273;28;20107;-69
2023/05/27 04:54:40;;;;;;;10.50;2.67;;;;;;;;;;5284440;28;20056;-69
2023/05/27 04:57:11;;;;;;;9.27;3.22;;;;;;;;;;5284559;28;20379;-69
2023/05/27 05:02:35;;;;;;;11.00;3.10;;;;;;;;;;5285131;28;20024;-69
2023/05/27 05:05:08;;;;;;;9.63;2.60;;;;;;;;;;5283848;28;20033;-69
2023/05/27 05:07:41;;;;;;;13.70;4.35;;;;;;;;;;5284314;28;20017;-69
2023/05/27 05:10:12;;;;;;;12.02;3.67;;;;;;;;;;5285014;28;20036;-69
2023/05/27 05:12:43;;;;;;;13.77;3.72;;;;;;;;;;5283358;28;20020;-69
2023/05/27 05:15:14;;;;;;;13.85;3.90;;;;;;;;;;5284969;28;20414;-69
2023/05/27 05:17:46;;;;;;;13.00;3.47;;;;;;;;;;5284058;28;20039;-69
2023/05/27 05:20:17;;;;;;;14.10;3.88;;;;;;;;;;5283797;28;20025;-69
2023/05/27 05:22:48;;;;;;;13.80;4.00;;;;;;;;;;5284264;28;20726;-69
2023/05/27 05:25:19;;;;;;;12.07;3.97;;;;;;;;;;5283744;28;20028;-69
2023/05/27 05:27:51;;;;;;;17.92;4.18;;;;;;;;;;5283476;28;20550;-68
2023/05/27 05:30:22;;;;;;;15.55;3.67;;;;;;;;;;5284502;28;20021;-69
2023/05/27 05:32:53;;;;;;;10.43;3.33;;;;;;;;;;5282945;28;20062;-70
2023/05/27 05:35:24;;;;;;;13.60;4.10;;;;;;;;;;5284595;28;20487;-70
2023/05/27 05:37:56;;;;;;;15.23;4.25;;;;;;;;;;5283832;28;20055;-70
2023/05/27 05:40:27;;;;;;;14.72;3.56;;;;;;;;;;5283639;28;20099;-69
2023/05/27 05:42:58;;;;;;;20.38;5.85;;;;;;;;;;5283537;28;20623;-70
2023/05/27 05:45:30;;;;;;;16.02;4.35;;;;;;;;;;5283817;28;20498;-70
2023/05/27 05:48:01;;;;;;;14.80;4.28;;;;;;;;;;5283123;28;20044;-69
2023/05/27 05:50:32;;;;;;;15.85;4.35;;;;;;;;;;5284020;28;20051;-70
2023/05/27 05:53:04;;;;;;;19.25;4.88;;;;;;;;;;5283769;28;20012;-69
2023/05/27 05:55:35;;;;;;;14.48;4.72;;;;;;;;;;5282847;28;20298;-70
2023/05/27 05:58:06;;;;;;;15.77;4.75;;;;;;;;;;5283852;28;20095;-70
2023/05/27 06:00:37;;;;;;;15.55;4.15;;;;;;;;;;5282679;28;20024;-70
2023/05/27 06:03:08;;;;;;;14.34;4.90;;;;;;;;;;5283521;28;20387;-69
2023/05/27 06:05:40;;;;;;;17.38;4.95;;;;;;;;;;5282996;28;20378;-70
2023/05/27 06:08:11;;;;;;;16.05;4.43;;;;;;;;;;5283334;28;20020;-70
2023/05/27 06:10:42;;;;;;;20.08;5.20;;;;;;;;;;5283241;28;20016;-70
2023/05/27 06:13:13;;;;;;;14.80;4.00;;;;;;;;;;5283767;28;20044;-70
2023/05/27 06:15:45;;;;;;;16.74;3.72;;;;;;;;;;5282215;28;20103;-69
2023/05/27 06:18:16;;;;;;;14.27;3.83;;;;;;;;;;5283505;28;20019;-69
2023/05/27 06:20:47;;;;;;;15.85;3.85;;;;;;;;;;5283085;28;20514;-70
2023/05/27 06:23:18;;;;;;;17.85;4.38;;;;;;;;;;5282813;28;20043;-70
2023/05/27 06:25:49;;;;;;;13.50;3.98;;;;;;;;;;5282697;28;20028;-70
2023/05/27 06:28:21;;;;;;;16.90;4.50;;;;;;;;;;5283370;28;20017;-70
2023/05/27 06:30:52;;;;;;;14.27;3.75;;;;;;;;;;5281792;28;20263;-70
2023/05/27 06:33:23;;;;;;;15.32;3.85;;;;;;;;;;5283289;28;20460;-69
2023/05/27 06:35:54;;;;;;;12.85;4.22;;;;;;;;;;5281896;28;20325;-69
2023/05/27 06:38:26;;;;;;;11.00;4.00;;;;;;;;;;5282779;28;20052;-69
2023/05/27 06:40:57;;;;;;;19.67;4.45;;;;;;;;;;5282032;28;20099;-70
2023/05/27 06:43:28;;;;;;;16.55;4.32;;;;;;;;;;5282290;28;20025;-70
2023/05/27 06:45:59;;;;;;;15.07;4.07;;;;;;;;;;5282485;28;20124;-69
2023/05/27 06:48:31;;;;;;;16.95;4.35;;;;;;;;;;5282717;28;20266;-70
2023/05/27 06:51:02;;;;;;;13.82;4.78;;;;;;;;;;5281973;28;20013;-70
2023/05/27 06:53:34;;;;;;;19.88;4.90;;;;;;;;;;5282466;28;20077;-70
2023/05/27 06:56:05;;;;;;;13.80;3.92;;;;;;;;;;5282320;28;20046;-70
2023/05/27 06:58:36;;;;;;;14.18;4.43;;;;;;;;;;5281869;28;20062;-69
2023/05/27 07:01:08;;;;;;;16.20;3.92;;;;;;;;;;5282582;28;20092;-69
2023/05/27 07:03:39;;;;;;;13.15;3.92;;;;;;;;;;5281318;28;20055;-69
2023/05/27 07:06:10;;;;;;;12.95;4.00;;;;;;;;;;5282371;28;20033;-70
2023/05/27 07:08:41;;;;;;;13.65;4.30;;;;;;;;;;5282074;28;20375;-70
2023/05/27 07:11:13;;;;;;;12.07;4.20;;;;;;;;;;5281907;28;20023;-70
2023/05/27 07:13:44;;;;;;;16.73;3.58;;;;;;;;;;5281867;28;20263;-69
2023/05/27 07:16:15;;;;;;;12.70;4.25;;;;;;;;;;5282338;28;20027;-70
2023/05/27 07:18:46;;;;;;;18.15;4.45;;;;;;;;;;5280833;28;20009;-70
2023/05/27 07:21:18;;;;;;;17.63;4.78;;;;;;;;;;5282398;28;20546;-70
2023/05/27 07:23:49;;;;;;;15.55;4.40;;;;;;;;;;5281814;28;20017;-70
2023/05/27 07:26:20;;;;;;;17.63;4.95;;;;;;;;;;5280524;28;20032;-70
2023/05/27 07:28:52;;;;;;;15.95;4.72;;;;;;;;;;5281390;28;20023;-70
2023/05/27 07:31:23;;;;;;;15.27;5.70;;;;;;;;;;5282136;28;20017;-70
2023/05/27 07:33:55;;;;;;;19.02;4.43;;;;;;;;;;5280906;28;20012;-70
2023/05/27 07:36:26;;;;;;;16.45;5.05;;;;;;;;;;5282064;28;20024;-70
2023/05/27 07:38:57;;;;;;;16.63;5.15;;;;;;;;;;5280600;28;20012;-70
2023/05/27 07:41:29;;;;;;;14.90;3.93;;;;;;;;;;5281694;28;20262;-69
2023/05/27 07:44:00;;;;;;;14.93;4.32;;;;;;;;;;5281581;28;20262;-70
2023/05/27 07:46:32;;;;;;;11.93;4.05;;;;;;;;;;5280238;28;20032;-70
2023/05/27 07:49:03;;;;;;;13.40;4.75;;;;;;;;;;5281136;28;20052;-70
2023/05/27 07:51:35;;;;;;;16.30;4.07;;;;;;;;;;5281227;28;20432;-70
2023/05/27 07:54:07;;;;;;;15.75;4.90;;;;;;;;;;5280211;28;20282;-70
2023/05/27 07:56:38;;;;;;;16.23;4.03;;;;;;;;;;5281574;28;20035;-70
2023/05/27 07:59:09;;;;;;;22.67;5.43;;;;;;;;;;5281506;28;20060;-70
2023/05/27 08:01:40;;;;;;;18.05;4.90;;;;;;;;;;5280617;28;20474;-70
2023/05/27 08:04:11;;;;;;;14.50;4.83;;;;;;;;;;5281897;28;20061;-71
2023/05/27 08:06:43;;;;;;;12.93;4.50;;;;;;;;;;5280932;28;20347;-70
2023/05/27 08:09:14;;;;;;;13.90;5.25;;;;;;;;;;5281215;28;20259;-70
2023/05/27 08:11:45;;;;;;;13.45;3.92;;;;;;;;;;5280952;28;20263;-70
2023/05/27 08:14:16;;;;;;;12.20;5.10;;;;;;;;;;5280916;28;20353;-70
2023/05/27 08:16:47;;;;;;;11.00;4.38;;;;;;;;;;5281020;28;20259;-70
2023/05/27 08:19:18;;;;;;;15.27;5.03;;;;;;;;;;5281594;28;20080;-69
2023/05/27 08:21:50;;;;;;;15.98;5.15;;;;;;;;;;5280133;28;20277;-70
2023/05/27 08:24:21;;;;;;;14.80;4.75;;;;;;;;;;5281709;28;20392;-70
2023/05/27 08:26:52;;;;;;;16.58;4.95;;;;;;;;;;5280849;28;20062;-69
2023/05/27 08:29:26;;;;;;;12.43;4.72;;;;;;;;;;5280720;28;20025;-71
2023/05/27 08:31:58;;;;;;;13.82;5.55;;;;;;;;;;5280663;28;20147;-69
2023/05/27 08:34:29;;;;;;;11.95;4.03;;;;;;;;;;5280987;28;20029;-69
2023/05/27 08:37:01;;;;;;;17.45;5.68;;;;;;;;;;5280684;28;20055;-69
2023/05/27 08:39:32;;;;;;;17.23;5.03;;;;;;;;;;5281224;28;20025;-70
2023/05/27 08:42:04;;;;;;;15.90;4.85;;;;;;;;;;5280649;28;20029;-70
2023/05/27 08:44:35;;;;;;;17.02;4.63;;;;;;;;;;5281073;28;20017;-69
2023/05/27 08:47:07;;;;;;;14.07;4.40;;;;;;;;;;5281174;28;20016;-70
2023/05/27 08:49:38;;;;;;;13.80;4.05;;;;;;;;;;5280314;28;20269;-70
2023/05/27 08:52:10;;;;;;;12.27;3.90;;;;;;;;;;5281161;28;20036;-70
2023/05/27 08:54:42;;;;;;;15.68;3.67;;;;;;;;;;5280422;28;20068;-70
2023/05/27 08:57:15;;;;;;;11.77;3.28;;;;;;;;;;5280380;28;20451;-70
2023/05/27 08:59:46;;;;;;;13.52;3.33;;;;;;;;;;5280297;28;20025;-70
2023/05/27 09:02:18;;;;;;;13.52;3.83;;;;;;;;;;5281786;28;20017;-69
2023/05/27 09:04:50;;;;;;;11.13;3.03;;;;;;;;;;5283588;28;20115;-69
2023/05/27 09:07:22;;;;;;;13.57;3.28;;;;;;;;;;5285064;28;20095;-70
2023/05/27 09:09:57;;;;;;;10.48;2.97;;;;;;;;;;5284199;28;20054;-70
2023/05/27 09:12:29;;;;;;;9.57;3.35;;;;;;;;;;5284000;28;20021;-70
2023/05/27 09:15:01;;;;;;;9.02;2.75;;;;;;;;;;5284225;28;20485;-70
2023/05/27 09:17:32;;;;;;;10.57;3.05;;;;;;;;;;5283522;28;20535;-70
2023/05/27 09:20:03;;;;;;;10.20;3.03;;;;;;;;;;5284666;28;20017;-70
2023/05/27 09:22:35;;;;;;;10.32;3.42;;;;;;;;;;5284512;28;20086;-69
2023/05/27 09:25:07;;;;;;;11.98;3.50;;;;;;;;;;5283384;28;20029;-70
2023/05/27 09:27:38;;;;;;;10.23;3.13;;;;;;;;;;5283840;28;20528;-70
2023/05/27 09:30:09;;;;;;;14.67;3.13;;;;;;;;;;5284386;28;20021;-69
2023/05/27 09:32:41;;;;;;;13.75;3.72;;;;;;;;;;5283326;28;20363;-70
2023/05/27 09:35:16;;;;;;;9.43;2.80;;;;;;;;;;5284622;28;20031;-70
2023/05/27 09:37:47;;;;;;;11.73;3.17;;;;;;;;;;5283715;28;20017;-70
2023/05/27 09:40:18;;;;;;;10.63;3.35;;;;;;;;;;5283528;28;20474;-70
2023/05/27 09:42:49;;;;;;;11.33;2.97;;;;;;;;;;5283716;28;20020;-70
2023/05/27 09:45:21;;;;;;;12.00;3.03;;;;;;;;;;5283593;28;20471;-70
2023/05/27 09:47:52;;;;;;;8.73;2.88;;;;;;;;;;5283496;28;20353;-70
2023/05/27 09:50:25;;;;;;;10.13;3.50;;;;;;;;;;5284241;28;20020;-70
2023/05/27 09:52:58;;;;;;;12.43;3.63;;;;;;;;;;5282771;28;20101;-70
2023/05/27 09:55:30;;;;;;;9.25;3.13;;;;;;;;;;5283893;28;20064;-70
2023/05/27 09:58:01;;;;;;;8.98;3.15;;;;;;;;;;5283730;28;20067;-70
2023/05/27 10:00:33;;;;;;;11.68;3.03;;;;;;;;;;5282823;28;20384;-70
2023/05/27 10:03:06;;;;;;;13.50;3.72;;;;;;;;;;5283551;28;20028;-70
2023/05/27 10:05:37;;;;;;;9.05;2.88;;;;;;;;;;5283840;28;20383;-70
2023/05/27 10:08:08;;;;;;;10.57;3.80;;;;;;;;;;5282702;28;20062;-71
2023/05/27 10:10:40;;;;;;;8.17;2.57;;;;;;;;;;5283310;28;20475;-71
2023/05/27 10:13:13;;;;;;;14.80;3.58;;;;;;;;;;5283499;28;20267;-71
2023/05/27 10:15:51;;;;;;;13.10;3.80;;;;;;;;;;5282225;28;20021;-70
2023/05/27 10:18:23;;;;;;;12.63;3.35;;;;;;;;;;5283643;28;20023;-70
2023/05/27 10:20:56;;;;;;;8.80;2.40;;;;;;;;;;5282378;28;20012;-70
2023/05/27 10:23:28;;;;;;;10.38;3.08;;;;;;;;;;5283494;28;20017;-70
2023/05/27 10:26:06;;;;;;;14.27;3.17;;;;;;;;;;5282861;28;20032;-71
2023/05/27 10:28:41;;;;;;;;;;;;;;;;;;5282729;28;20016;-70
2023/05/27 10:31:17;;;;;;;10.57;3.35;;;;;;;;;;5283351;28;20318;-70
2023/05/27 10:33:50;;;;;;;13.25;3.90;;;;;;;;;;5282606;28;20118;-70
2023/05/27 10:36:22;;;;;;;13.57;4.10;;;;;;;;;;5282429;28;20056;-70
2023/05/27 10:38:58;;;;;;;12.60;3.90;;;;;;;;;;5282504;28;20021;-70
2023/05/27 10:41:42;;;;;;;13.55;3.30;;;;;;;;;;5283047;28;20062;-70
2023/05/27 10:44:14;;;;;;;13.35;3.67;;;;;;;;;;5282669;28;20012;-71
2023/05/27 10:46:45;;;;;;;13.40;3.90;;;;;;;;;;5282301;28;20410;-71
2023/05/27 10:49:22;;;;;;;11.25;3.80;;;;;;;;;;5282072;28;20017;-70
2023/05/27 10:51:53;;;;;;;10.70;3.03;;;;;;;;;;5282116;28;20025;-70
2023/05/27 10:54:24;;;;;;;11.60;3.30;;;;;;;;;;5282715;28;20102;-70
2023/05/27 10:56:56;;;;;;;13.63;3.97;;;;;;;;;;5281611;28;20020;-71
2023/05/27 10:59:33;;;;;;;13.80;3.30;;;;;;;;;;5282780;28;20266;-68
2023/05/27 11:02:05;;;;;;;11.95;3.53;;;;;;;;;;5282477;28;20266;-69
2023/05/27 11:04:37;;;;;;;14.90;4.07;;;;;;;;;;5281585;28;20391;-69
2023/05/27 11:07:08;;;;;;;13.52;4.68;;;;;;;;;;5282075;28;20035;-69
2023/05/27 11:09:43;;;;;;;13.68;3.97;;;;;;;;;;5281710;28;20083;-70
2023/05/27 11:12:17;;;;;;;13.60;4.93;;;;;;;;;;5280734;28;20029;-68
2023/05/27 11:14:50;;;;;;;14.93;4.28;;;;;;;;;;5280823;28;20111;-68
2023/05/27 11:17:22;;;;;;;12.85;3.78;;;;;;;;;;5280636;28;20020;-68
2023/05/27 11:19:53;;;;;;;13.73;3.70;;;;;;;;;;5280603;28;20071;-68
2023/05/27 11:22:24;;;;;;;14.38;4.20;;;;;;;;;;5281335;28;20040;-68
2023/05/27 11:24:59;;;;;;;17.23;5.15;;;;;;;;;;5279654;28;20031;-68
2023/05/27 11:27:40;;;;;;;14.63;4.55;;;;;;;;;;5280548;28;20016;-69
2023/05/27 11:30:11;;;;;;;14.73;4.38;;;;;;;;;;5280086;28;20048;-69
2023/05/27 11:32:43;;;;;;;12.95;3.42;;;;;;;;;;5278780;28;20412;-69
2023/05/27 11:35:14;;;;;;;10.02;2.78;;;;;;;;;;5280135;28;20015;-69
2023/05/27 11:37:48;;;;;;;13.25;2.58;;;;;;;;;;5279573;28;20025;-69
2023/05/27 11:40:20;;;;;;;12.10;3.15;;;;;;;;;;5279349;28;20020;-69
2023/05/27 11:42:52;;;;;;;11.45;2.83;;;;;;;;;;5280856;28;20097;-68
2023/05/27 11:45:24;;;;;;;13.27;2.80;;;;;;;;;;5281111;28;20404;-69
2023/05/27 11:47:55;;;;;;;10.48;2.15;;;;;;;;;;5281503;28;20036;-68
2023/05/27 11:50:27;;;;;;;10.00;2.33;;;;;;;;;;5281948;28;20048;-68
2023/05/27 11:53:02;;;;;;;12.00;2.40;;;;;;;;;;5280772;28;20381;-68
2023/05/27 11:55:33;;;;;;;11.23;2.58;;;;;;;;;;5281295;28;20041;-68
2023/05/27 11:58:04;;;;;;;10.67;2.30;;;;;;;;;;5281682;28;20017;-68
2023/05/27 12:00:35;;;;;;;9.10;2.10;;;;;;;;;;5280910;28;20069;-68
2023/05/27 12:03:07;;;;;;;9.38;2.22;;;;;;;;;;5281557;28;20027;-68
2023/05/27 12:05:38;;;;;;;13.52;2.67;;;;;;;;;;5281385;28;20515;-68
2023/05/27 12:08:09;;;;;;;7.23;1.70;;;;;;;;;;5280934;28;20090;-68
2023/05/27 12:10:40;;;;;;;9.75;2.63;;;;;;;;;;5281413;28;20323;-68
2023/05/27 12:13:11;;;;;;;7.75;2.33;;;;;;;;;;5281176;28;20108;-68
2023/05/27 12:15:42;;;;;;;9.57;2.70;;;;;;;;;;5281120;28;20023;-68
2023/05/27 12:18:14;;;;;;;14.90;2.72;;;;;;;;;;5281639;28;20329;-68
2023/05/27 12:20:45;;;;;;;10.68;2.40;;;;;;;;;;5280312;28;20031;-68
2023/05/27 12:23:16;;;;;;;9.80;2.65;;;;;;;;;;5281712;28;20402;-68
2023/05/27 12:25:47;;;;;;;9.37;2.30;;;;;;;;;;5281257;28;20468;-68
2023/05/27 12:28:18;;;;;;;9.73;2.10;;;;;;;;;;5280989;28;20303;-68
2023/05/27 12:30:50;;;;;;;6.17;2.03;;;;;;;;;;5281051;28;20395;-68
2023/05/27 12:33:21;;;;;;;9.73;2.20;;;;;;;;;;5281477;28;20019;-68
2023/05/27 12:35:52;;;;;;;9.83;2.40;;;;;;;;;;5280137;28;20020;-68
2023/05/27 12:38:23;;;;;;;7.47;2.00;;;;;;;;;;5284213;28;20668;-68
2023/05/27 12:40:57;;;;;;;10.45;2.65;;;;;;;;;;5285004;28;20420;-68
2023/05/27 12:43:29;;;;;;;10.20;2.55;;;;;;;;;;5284750;28;20463;-68
2023/05/27 12:46:00;;;;;;;10.50;1.92;;;;;;;;;;5284676;28;20123;-68
2023/05/27 12:48:31;;;;;;;12.27;2.30;;;;;;;;;;5284024;28;20015;-68
2023/05/27 12:51:02;;;;;;;9.43;2.10;;;;;;;;;;5285217;28;20027;-68
2023/05/27 12:53:34;;;;;;;8.85;2.25;;;;;;;;;;5284980;28;20263;-68
2023/05/27 12:56:05;;;;;;;9.80;2.20;;;;;;;;;;5283959;28;20048;-68
2023/05/27 12:58:36;;;;;;;11.18;2.03;;;;;;;;;;5284803;28;20024;-68
2023/05/27 13:01:07;;;;;;;9.70;2.20;;;;;;;;;;5284758;28;20456;-68
2023/05/27 13:03:38;;;;;;;9.98;2.40;;;;;;;;;;5283822;28;20477;-68
2023/05/27 13:06:10;;;;;;;12.30;2.20;;;;;;;;;;5284654;28;20085;-67
2023/05/27 13:08:41;;;;;;;8.73;1.52;;;;;;;;;;5284130;28;20016;-68
2023/05/27 13:11:12;;;;;;;13.87;2.57;;;;;;;;;;5283956;28;20380;-69
2023/05/27 13:13:44;;;;;;;11.75;2.42;;;;;;;;;;5284062;28;20359;-68
2023/05/27 13:16:15;;;;;;;10.50;2.17;;;;;;;;;;5284672;28;20077;-69
2023/05/27 13:18:46;;;;;;;8.00;1.73;;;;;;;;;;5283049;28;20360;-69
2023/05/27 13:21:17;;;;;;;6.47;1.42;;;;;;;;;;5284369;28;20266;-68
2023/05/27 13:23:48;;;;;;;9.93;2.10;;;;;;;;;;5283315;28;20375;-69
2023/05/27 13:26:20;;;;;;;9.30;2.33;;;;;;;;;;5284568;28;20298;-68
2023/05/27 13:28:51;;;;;;;9.75;1.60;;;;;;;;;;5283938;28;20345;-69
2023/05/27 13:31:23;;;;;;;9.68;1.55;;;;;;;;;;5283696;28;20078;-70
2023/05/27 13:33:54;;;;;;;8.25;1.80;;;;;;;;;;5283939;28;20020;-70
2023/05/27 13:36:25;;;;;;;11.00;1.90;;;;;;;;;;5284540;28;20020;-70
2023/05/27 13:38:56;;;;;;;8.77;2.17;;;;;;;;;;5282578;28;20021;-70
2023/05/27 13:41:27;;;;;;;9.13;1.50;;;;;;;;;;5284118;28;20432;-70
2023/05/27 13:43:59;;;;;;;9.10;1.80;;;;;;;;;;5283559;28;20283;-70
2023/05/27 13:46:30;;;;;;;7.20;1.37;;;;;;;;;;5283279;28;20290;-70
2023/05/27 13:49:01;;;;;;;8.73;1.60;;;;;;;;;;5283340;28;20055;-69
2023/05/27 13:51:32;;;;;;;8.63;2.15;;;;;;;;;;5282892;28;20730;-69
2023/05/27 13:54:04;;;;;;;7.20;1.75;;;;;;;;;;5283862;28;20099;-70
2023/05/27 13:56:35;;;;;;;8.10;1.70;;;;;;;;;;5283575;28;20044;-69
2023/05/27 13:59:09;;;;;;;9.70;1.83;;;;;;;;;;5283042;28;20346;-69
2023/05/27 14:01:43;;;;;;;8.40;1.65;;;;;;;;;;5283359;28;20250;-69
2023/05/27 14:04:14;;;;;;;11.73;2.17;;;;;;;;;;5283603;28;20081;-69
2023/05/27 14:06:45;;;;;;;7.85;1.73;;;;;;;;;;5282442;28;20037;-69
2023/05/27 14:09:17;;;;;;;6.15;1.38;;;;;;;;;;5283576;28;20036;-69
2023/05/27 14:11:48;;;;;;;7.80;1.90;;;;;;;;;;5282535;28;20031;-69
2023/05/27 14:14:19;;;;;;;9.70;2.08;;;;;;;;;;5282965;28;20020;-70
2023/05/27 14:16:50;;;;;;;7.33;1.63;;;;;;;;;;5283082;28;20020;-69
2023/05/27 14:19:21;;;;;;;7.97;1.63;;;;;;;;;;5283337;28;20263;-70
2023/05/27 14:21:53;;;;;;;8.33;1.67;;;;;;;;;;5282308;28;20065;-69
2023/05/27 14:24:24;;;;;;;9.27;1.45;;;;;;;;;;5283521;28;20025;-70
2023/05/27 14:26:56;;;;;;;11.13;1.73;;;;;;;;;;5282112;28;20111;-69
2023/05/27 14:29:27;;;;;;;9.75;2.00;;;;;;;;;;5283374;28;20017;-69
2023/05/27 14:31:58;;;;;;;11.27;2.10;;;;;;;;;;5282724;28;20476;-71
2023/05/27 14:34:29;;;;;;;6.87;1.53;;;;;;;;;;5282514;28;20271;-70
2023/05/27 14:37:01;;;;;;;6.20;1.57;;;;;;;;;;5283079;28;20345;-70
2023/05/27 14:39:32;;;;;;;7.60;1.20;;;;;;;;;;5282998;28;20274;-70
2023/05/27 14:42:03;;;;;;;7.60;1.75;;;;;;;;;;5282067;28;20278;-70
2023/05/27 14:44:38;;;;;;;8.45;2.03;;;;;;;;;;5279577;28;20016;-69
2023/05/27 14:47:10;;;;;;;8.15;1.67;;;;;;;;;;5282630;28;20467;-70
2023/05/27 14:49:41;;;;;;;9.80;1.50;;;;;;;;;;5281222;28;20061;-70
2023/05/27 14:52:12;;;;;;;7.88;1.83;;;;;;;;;;5282361;28;20069;-69
2023/05/27 14:54:43;;;;;;;9.23;1.53;;;;;;;;;;5281764;28;20051;-69
2023/05/27 14:57:14;;;;;;;6.07;1.65;;;;;;;;;;5282170;28;20020;-69
2023/05/27 14:59:46;;;;;;;9.32;2.30;;;;;;;;;;5280336;28;20012;-69
2023/05/27 15:02:17;;;;;;;5.68;1.42;;;;;;;;;;5281679;28;20013;-69